createdAt,value
2023-04-03T00:00:58.159Z,98609.00
2023-04-03T00:03:25.435Z,98605.00
2023-04-03T00:05:52.561Z,98602.00
2023-04-03T00:08:20.278Z,98607.00
2023-04-03T00:10:47.620Z,98593.00
2023-04-03T00:13:15.481Z,98597.00
2023-04-03T00:15:42.797Z,98603.00
2023-04-03T00:18:10.318Z,98590.00
2023-04-03T00:20:37.972Z,98601.00
2023-04-03T00:23:05.388Z,98598.00
2023-04-03T00:25:32.503Z,98613.00
2023-04-03T00:27:59.623Z,98606.00
2023-04-03T00:30:26.701Z,98606.00
2023-04-03T00:32:54.633Z,98601.00
2023-04-03T00:35:23.396Z,98599.00
2023-04-03T00:37:53.681Z,98594.00
2023-04-03T00:40:23.228Z,98607.00
2023-04-03T00:42:56.965Z,98600.00
2023-04-03T00:45:36.218Z,98609.00
2023-04-03T00:48:07.389Z,98621.00
2023-04-03T00:50:39.475Z,98605.00
2023-04-03T00:53:10.820Z,98603.00
2023-04-03T00:55:39.520Z,98609.00
2023-04-03T00:58:09.136Z,98605.00
2023-04-03T01:00:43.197Z,98612.00
2023-04-03T01:03:10.274Z,98605.00
2023-04-03T01:05:40.917Z,98603.00
2023-04-03T01:08:08.347Z,98608.00
2023-04-03T01:10:35.393Z,98607.00
2023-04-03T01:13:02.703Z,98606.00
2023-04-03T01:15:35.803Z,98618.00
2023-04-03T01:18:03.676Z,98606.00
2023-04-03T01:20:36.800Z,98613.00
2023-04-03T01:24:07.092Z,98612.00
2023-04-03T01:26:35.029Z,98611.00
2023-04-03T01:29:02.479Z,98593.00
2023-04-03T01:31:54.627Z,98604.00
2023-04-03T01:34:22.935Z,98616.00
2023-04-03T01:36:52.055Z,98612.00
2023-04-03T01:39:19.457Z,98600.00
2023-04-03T01:41:47.220Z,98612.00
2023-04-03T01:44:21.745Z,98616.00
2023-04-03T01:46:49.068Z,98617.00
2023-04-03T01:49:15.872Z,98627.00
2023-04-03T01:51:42.794Z,98608.00
2023-04-03T01:54:09.706Z,98593.00
2023-04-03T01:56:36.570Z,98612.00
2023-04-03T01:59:03.650Z,98594.00
2023-04-03T02:01:31.321Z,98608.00
2023-04-03T02:03:58.516Z,98616.00
2023-04-03T02:11:07.972Z,98628.00
2023-04-03T02:13:35.099Z,98597.00
2023-04-03T02:16:09.018Z,98591.00
2023-04-03T02:18:35.858Z,98612.00
2023-04-03T02:21:02.686Z,98617.00
2023-04-03T02:23:29.730Z,98617.00
2023-04-03T02:26:12.625Z,98606.00
2023-04-03T02:28:40.579Z,98610.00
2023-04-03T02:31:08.674Z,98624.00
2023-04-03T02:33:37.815Z,98619.00
2023-04-03T02:36:09.528Z,98612.00
2023-04-03T02:38:38.068Z,98609.00
2023-04-03T02:41:09.235Z,98623.00
2023-04-03T02:43:36.595Z,98625.00
2023-04-03T02:46:06.380Z,98625.00
2023-04-03T02:48:33.736Z,98581.00
2023-04-03T02:51:00.648Z,98626.00
2023-04-03T02:53:27.659Z,98628.00
2023-04-03T02:55:54.670Z,98630.00
2023-04-03T02:58:21.846Z,98621.00
2023-04-03T03:00:48.906Z,98619.00
2023-04-03T03:03:16.091Z,98614.00
2023-04-03T03:05:43.207Z,98628.00
2023-04-03T03:08:10.271Z,98625.00
2023-04-03T03:10:37.780Z,98615.00
2023-04-03T03:13:04.977Z,98607.00
2023-04-03T03:15:32.146Z,98628.00
2023-04-03T03:17:58.962Z,98617.00
2023-04-03T03:20:26.569Z,98612.00
2023-04-03T03:22:53.566Z,98622.00
2023-04-03T03:25:20.394Z,98622.00
2023-04-03T03:27:47.192Z,98611.00
2023-04-03T03:30:14.077Z,98637.00
2023-04-03T03:32:41.202Z,98630.00
2023-04-03T03:35:08.597Z,98632.00
2023-04-03T03:37:35.522Z,98622.00
2023-04-03T03:40:02.391Z,98625.00
2023-04-03T03:42:30.703Z,98634.00
2023-04-03T03:44:57.683Z,98639.00
2023-04-03T03:47:24.844Z,98635.00
2023-04-03T03:49:51.993Z,98641.00
2023-04-03T03:52:18.968Z,98639.00
2023-04-03T03:54:45.952Z,98637.00
2023-04-03T03:57:13.440Z,98634.00
2023-04-03T03:59:42.682Z,98643.00
2023-04-03T04:02:09.776Z,98634.00
2023-04-03T04:04:37.764Z,98636.00
2023-04-03T04:07:05.355Z,98632.00
2023-04-03T04:09:34.401Z,98630.00
2023-04-03T04:12:01.608Z,98644.00
2023-04-03T04:14:30.607Z,98632.00
2023-04-03T04:16:57.958Z,98646.00
2023-04-03T04:19:27.123Z,98643.00
2023-04-03T04:21:54.833Z,98653.00
2023-04-03T04:24:23.660Z,98656.00
2023-04-03T04:26:52.573Z,98635.00
2023-04-03T04:29:21.031Z,98617.00
2023-04-03T04:31:50.522Z,98629.00
2023-04-03T04:34:17.992Z,98638.00
2023-04-03T04:36:45.000Z,98627.00
2023-04-03T04:39:12.407Z,98633.00
2023-04-03T04:41:40.750Z,98626.00
2023-04-03T04:44:07.921Z,98637.00
2023-04-03T04:46:34.866Z,98650.00
2023-04-03T04:49:02.291Z,98649.00
2023-04-03T04:51:40.987Z,98644.00
2023-04-03T04:54:16.762Z,98648.00
2023-04-03T04:56:44.305Z,98651.00
2023-04-03T04:59:11.351Z,98647.00
2023-04-03T05:01:38.819Z,98664.00
2023-04-03T05:04:10.431Z,98665.00
2023-04-03T05:06:38.329Z,98644.00
2023-04-03T05:09:10.774Z,98658.00
2023-04-03T05:11:38.282Z,98667.00
2023-04-03T05:14:07.455Z,98655.00
2023-04-03T05:16:35.916Z,98673.00
2023-04-03T05:19:02.806Z,98667.00
2023-04-03T05:21:33.595Z,98667.00
2023-04-03T05:24:05.334Z,98664.00
2023-04-03T05:26:34.918Z,98692.00
2023-04-03T05:29:03.407Z,98681.00
2023-04-03T05:31:31.274Z,98683.00
2023-04-03T05:33:59.314Z,98694.00
2023-04-03T05:36:28.210Z,98684.00
2023-04-03T05:38:59.990Z,98693.00
2023-04-03T05:41:27.050Z,98688.00
2023-04-03T05:43:54.015Z,98681.00
2023-04-03T05:46:23.077Z,98685.00
2023-04-03T05:48:54.104Z,98686.00
2023-04-03T05:51:29.606Z,98700.00
2023-04-03T05:54:35.267Z,98687.00
2023-04-03T05:57:12.865Z,98672.00
2023-04-03T05:59:41.811Z,98704.00
2023-04-03T06:02:12.369Z,98703.00
2023-04-03T06:04:40.280Z,98702.00
2023-04-03T06:07:08.500Z,98711.00
2023-04-03T06:09:35.662Z,98706.00
2023-04-03T06:12:02.774Z,98710.00
2023-04-03T06:14:30.578Z,98697.00
2023-04-03T06:16:57.846Z,98696.00
2023-04-03T06:19:24.999Z,98705.00
2023-04-03T06:21:55.937Z,98711.00
2023-04-03T06:24:26.087Z,98709.00
2023-04-03T06:26:54.236Z,98709.00
2023-04-03T06:29:21.518Z,98719.00
2023-04-03T06:31:49.426Z,98715.00
2023-04-03T06:34:19.201Z,98726.00
2023-04-03T06:36:46.189Z,98715.00
2023-04-03T06:39:21.294Z,98723.00
2023-04-03T06:41:48.350Z,98739.00
2023-04-03T06:44:17.015Z,98722.00
2023-04-03T06:46:46.331Z,98721.00
2023-04-03T06:49:13.876Z,98736.00
2023-04-03T06:51:40.724Z,98735.00
2023-04-03T06:54:09.118Z,98740.00
2023-04-03T06:56:36.663Z,98743.00
2023-04-03T06:59:04.174Z,98744.00
2023-04-03T07:01:31.941Z,98750.00
2023-04-03T07:03:59.142Z,98738.00
2023-04-03T07:06:28.071Z,98736.00
2023-04-03T07:08:56.398Z,98759.00
2023-04-03T07:11:23.956Z,98749.00
2023-04-03T07:13:52.001Z,98753.00
2023-04-03T07:16:19.365Z,98742.00
2023-04-03T07:18:47.438Z,98752.00
2023-04-03T07:21:14.508Z,98747.00
2023-04-03T07:23:41.597Z,98737.00
2023-04-03T07:26:09.019Z,98751.00
2023-04-03T07:28:37.430Z,98751.00
2023-04-03T07:31:09.234Z,98756.00
2023-04-03T07:33:36.915Z,98759.00
2023-04-03T07:36:05.510Z,98753.00
2023-04-03T07:38:32.391Z,98763.00
2023-04-03T07:40:59.545Z,98762.00
2023-04-03T07:43:26.984Z,98751.00
2023-04-03T07:45:55.130Z,98778.00
2023-04-03T07:48:26.494Z,98761.00
2023-04-03T07:50:53.645Z,98756.00
2023-04-03T07:53:20.814Z,98767.00
2023-04-03T07:55:52.463Z,98767.00
2023-04-03T07:58:19.868Z,98748.00
2023-04-03T08:00:47.628Z,98756.00
2023-04-03T08:03:17.666Z,98760.00
2023-04-03T08:05:48.936Z,98757.00
2023-04-03T08:08:21.659Z,98770.00
2023-04-03T08:10:53.619Z,98762.00
2023-04-03T08:13:22.394Z,98754.00
2023-04-03T08:15:49.562Z,98764.00
2023-04-03T08:18:17.234Z,98770.00
2023-04-03T08:20:46.000Z,98757.00
2023-04-03T08:23:12.971Z,98752.00
2023-04-03T08:25:42.023Z,98756.00
2023-04-03T08:28:12.793Z,98734.00
2023-04-03T08:30:43.710Z,98750.00
2023-04-03T08:33:11.708Z,98755.00
2023-04-03T08:35:43.246Z,98755.00
2023-04-03T08:38:11.461Z,98765.00
2023-04-03T08:40:39.236Z,98762.00
2023-04-03T08:43:14.949Z,98753.00
2023-04-03T08:45:56.436Z,98776.00
2023-04-03T08:48:32.012Z,98764.00
2023-04-03T08:51:10.824Z,98765.00
2023-04-03T08:53:47.425Z,98777.00
2023-04-03T08:56:19.059Z,98767.00
2023-04-03T08:59:00.738Z,98775.00
2023-04-03T09:01:37.519Z,98782.00
2023-04-03T09:04:14.728Z,98788.00
2023-04-03T09:06:47.302Z,98777.00
2023-04-03T09:09:22.837Z,98776.00
2023-04-03T09:12:31.025Z,98762.00
2023-04-03T09:15:31.251Z,98773.00
2023-04-03T09:18:24.616Z,98772.00
2023-04-03T09:21:46.082Z,98779.00
2023-04-03T09:24:17.633Z,98791.00
2023-04-03T09:26:57.136Z,98772.00
2023-04-03T09:29:25.885Z,98794.00
2023-04-03T09:32:10.579Z,98779.00
2023-04-03T09:34:39.034Z,98777.00
2023-04-03T09:37:09.981Z,98764.00
2023-04-03T09:39:55.359Z,98773.00
2023-04-03T09:42:26.113Z,98765.00
2023-04-03T09:45:00.447Z,98791.00
2023-04-03T09:47:31.765Z,98769.00
2023-04-03T09:50:22.932Z,98770.00
2023-04-03T09:52:54.820Z,98781.00
2023-04-03T09:55:29.947Z,98761.00
2023-04-03T09:58:05.151Z,98753.00
2023-04-03T10:00:37.777Z,98765.00
2023-04-03T10:03:06.010Z,98759.00
2023-04-03T10:05:42.449Z,98767.00
2023-04-03T10:08:15.409Z,98759.00
2023-04-03T10:10:49.138Z,98758.00
2023-04-03T10:13:24.349Z,98743.00
2023-04-03T10:16:12.324Z,98762.00
2023-04-03T10:18:59.333Z,98758.00
2023-04-03T10:21:51.949Z,98741.00
2023-04-03T10:25:04.300Z,98756.00
2023-04-03T10:27:57.791Z,98760.00
2023-04-03T10:30:47.539Z,98733.00
2023-04-03T10:33:48.217Z,98751.00
2023-04-03T10:36:54.418Z,98746.00
2023-04-03T10:40:06.011Z,98746.00
2023-04-03T10:42:48.411Z,98756.00
2023-04-03T10:45:28.750Z,98757.00
2023-04-03T10:48:39.078Z,98743.00
2023-04-03T10:51:27.491Z,98744.00
2023-04-03T10:54:00.897Z,98726.00
2023-04-03T10:56:51.199Z,98735.00
2023-04-03T10:59:50.831Z,98733.00
2023-04-03T11:02:31.787Z,98725.00
2023-04-03T11:05:16.486Z,98726.00
2023-04-03T11:07:51.361Z,98729.00
2023-04-03T11:10:46.323Z,98726.00
2023-04-03T11:13:35.492Z,98727.00
2023-04-03T11:16:06.378Z,98738.00
2023-04-03T11:19:08.136Z,98725.00
2023-04-03T11:21:45.421Z,98724.00
2023-04-03T11:24:25.277Z,98712.00
2023-04-03T11:26:53.984Z,98703.00
2023-04-03T11:32:32.331Z,98714.00
2023-04-03T11:35:03.468Z,98712.00
2023-04-03T11:37:45.636Z,98722.00
2023-04-03T11:40:28.816Z,98708.00
2023-04-03T11:43:01.560Z,98709.00
2023-04-03T11:45:53.901Z,98718.00
2023-04-03T11:48:29.869Z,98716.00
2023-04-03T11:50:58.620Z,98694.00
2023-04-03T11:53:37.777Z,98697.00
2023-04-03T11:56:29.378Z,98691.00
2023-04-03T11:59:24.796Z,98700.00
2023-04-03T12:01:59.113Z,98675.00
2023-04-03T12:04:28.598Z,98684.00
2023-04-03T12:07:13.703Z,98695.00
2023-04-03T12:09:43.519Z,98681.00
2023-04-03T12:12:39.521Z,98677.00
2023-04-03T12:15:25.150Z,98697.00
2023-04-03T12:17:52.675Z,98680.00
2023-04-03T12:20:50.541Z,98684.00
2023-04-03T12:23:37.114Z,98667.00
2023-04-03T12:27:02.631Z,98665.00
2023-04-03T12:29:35.157Z,98668.00
2023-04-03T12:32:04.877Z,98662.00
2023-04-03T12:35:02.668Z,98663.00
2023-04-03T12:38:04.857Z,98667.00
2023-04-03T12:40:48.994Z,98655.00
2023-04-03T12:43:43.825Z,98664.00
2023-04-03T12:46:16.880Z,98652.00
2023-04-03T12:48:52.056Z,98658.00
2023-04-03T12:51:42.053Z,98666.00
2023-04-03T12:54:22.877Z,98664.00
2023-04-03T12:56:49.832Z,98640.00
2023-04-03T12:59:27.773Z,98650.00
2023-04-03T13:02:01.697Z,98649.00
2023-04-03T13:04:31.498Z,98638.00
2023-04-03T13:06:59.127Z,98640.00
2023-04-03T13:09:31.301Z,98631.00
2023-04-03T13:12:14.383Z,98628.00
2023-04-03T13:14:41.961Z,98624.00
2023-04-03T13:17:16.264Z,98616.00
2023-04-03T13:19:46.906Z,98639.00
2023-04-03T13:22:44.614Z,98645.00
2023-04-03T13:25:16.964Z,98646.00
2023-04-03T13:27:45.641Z,98646.00
2023-04-03T13:30:40.547Z,98647.00
2023-04-03T13:33:23.880Z,98642.00
2023-04-03T13:36:21.218Z,98642.00
2023-04-03T13:39:05.265Z,98632.00
2023-04-03T13:41:39.687Z,98640.00
2023-04-03T13:44:22.906Z,98635.00
2023-04-03T13:47:01.683Z,98618.00
2023-04-03T13:49:37.669Z,98637.00
2023-04-03T13:52:33.408Z,98605.00
2023-04-03T13:55:24.622Z,98605.00
2023-04-03T13:57:58.578Z,98629.00
2023-04-03T14:00:36.747Z,98616.00
2023-04-03T14:03:14.295Z,98619.00
2023-04-03T14:05:41.301Z,98603.00
2023-04-03T14:08:08.256Z,98604.00
2023-04-03T14:10:35.643Z,98599.00
2023-04-03T14:13:03.038Z,98601.00
2023-04-03T14:15:32.961Z,98600.00
2023-04-03T14:18:02.924Z,98602.00
2023-04-03T14:20:30.857Z,98585.00
2023-04-03T14:22:57.957Z,98584.00
2023-04-03T14:25:25.010Z,98606.00
2023-04-03T14:27:54.736Z,98596.00
2023-04-03T14:30:32.839Z,98601.00
2023-04-03T14:33:02.147Z,98588.00
2023-04-03T14:35:29.580Z,98576.00
2023-04-03T14:37:56.984Z,98587.00
2023-04-03T14:40:28.685Z,98598.00
2023-04-03T14:42:56.309Z,98573.00
2023-04-03T14:45:24.773Z,98582.00
2023-04-03T14:47:57.501Z,98601.00
2023-04-03T14:50:27.982Z,98597.00
2023-04-03T14:52:59.438Z,98583.00
2023-04-03T14:55:28.542Z,98587.00
2023-04-03T14:57:55.672Z,98592.00
2023-04-03T15:00:24.137Z,98581.00
2023-04-03T15:02:51.905Z,98581.00
2023-04-03T15:05:20.433Z,98567.00
2023-04-03T15:07:55.794Z,98564.00
2023-04-03T15:10:26.901Z,98563.00
2023-04-03T15:12:55.575Z,98558.00
2023-04-03T15:15:24.484Z,98573.00
2023-04-03T15:17:58.854Z,98561.00
2023-04-03T15:20:27.928Z,98566.00
2023-04-03T15:22:57.169Z,98567.00
2023-04-03T15:25:26.160Z,98565.00
2023-04-03T15:27:55.568Z,98579.00
2023-04-03T15:30:22.815Z,98576.00
2023-04-03T15:32:51.085Z,98573.00
2023-04-03T15:35:19.000Z,98569.00
2023-04-03T15:37:46.277Z,98567.00
2023-04-03T15:42:55.036Z,98560.00
2023-04-03T15:45:22.724Z,98573.00
2023-04-03T15:47:49.868Z,98555.00
2023-04-03T15:50:17.146Z,98567.00
2023-04-03T15:52:44.232Z,98583.00
2023-04-03T15:55:11.121Z,98562.00
2023-04-03T16:00:10.797Z,98557.00
2023-04-03T16:02:37.866Z,98560.00
2023-04-03T16:05:05.391Z,98559.00
2023-04-03T16:07:32.291Z,98576.00
2023-04-03T16:09:59.409Z,98570.00
2023-04-03T16:12:26.453Z,98578.00
2023-04-03T16:14:53.261Z,98581.00
2023-04-03T16:17:20.315Z,98582.00
2023-04-03T16:19:47.311Z,98590.00
2023-04-03T16:22:14.487Z,98577.00
2023-04-03T16:24:41.501Z,98593.00
2023-04-03T16:27:08.417Z,98587.00
2023-04-03T16:29:35.278Z,98577.00
2023-04-03T16:32:03.374Z,98580.00
2023-04-03T16:34:33.061Z,98573.00
2023-04-03T16:37:00.816Z,98581.00
2023-04-03T16:39:28.263Z,98599.00
2023-04-03T16:41:55.263Z,98593.00
2023-04-03T16:44:22.076Z,98589.00
2023-04-03T16:46:49.071Z,98606.00
2023-04-03T16:49:16.585Z,98574.00
2023-04-03T16:51:43.625Z,98570.00
2023-04-03T16:54:12.486Z,98581.00
2023-04-03T16:56:39.414Z,98585.00
2023-04-03T16:59:06.723Z,98589.00
2023-04-03T17:01:33.921Z,98605.00
2023-04-03T17:04:01.136Z,98602.00
2023-04-03T17:06:28.027Z,98600.00
2023-04-03T17:08:54.854Z,98598.00
2023-04-03T17:11:29.942Z,98598.00
2023-04-03T17:13:56.883Z,98599.00
2023-04-03T17:16:25.473Z,98582.00
2023-04-03T17:18:54.656Z,98597.00
2023-04-03T17:21:22.450Z,98579.00
2023-04-03T17:23:58.512Z,98600.00
2023-04-03T17:26:27.141Z,98601.00
2023-04-03T17:28:54.466Z,98615.00
2023-04-03T17:31:21.626Z,98611.00
2023-04-03T17:33:48.457Z,98608.00
2023-04-03T17:36:15.790Z,98612.00
2023-04-03T17:38:42.645Z,98613.00
2023-04-03T17:41:10.056Z,98615.00
2023-04-03T17:43:36.985Z,98609.00
2023-04-03T17:46:10.802Z,98615.00
2023-04-03T17:48:41.174Z,98601.00
2023-04-03T17:51:14.448Z,98628.00
2023-04-03T17:53:42.535Z,98625.00
2023-04-03T17:56:14.942Z,98626.00
2023-04-03T17:58:42.261Z,98616.00
2023-04-03T18:01:19.252Z,98636.00
2023-04-03T18:03:47.535Z,98635.00
2023-04-03T18:06:18.640Z,98626.00
2023-04-03T18:08:55.942Z,98634.00
2023-04-03T18:11:28.024Z,98618.00
2023-04-03T18:13:59.561Z,98635.00
2023-04-03T18:16:27.611Z,98630.00
2023-04-03T18:21:41.988Z,98639.00
2023-04-03T18:24:15.709Z,98643.00
2023-04-03T18:26:47.978Z,98651.00
2023-04-03T18:29:16.077Z,98638.00
2023-04-03T18:31:50.481Z,98651.00
2023-04-03T18:34:17.387Z,98637.00
2023-04-03T18:36:44.212Z,98645.00
2023-04-03T18:39:11.101Z,98650.00
2023-04-03T18:41:38.844Z,98641.00
2023-04-03T18:44:12.231Z,98653.00
2023-04-03T18:46:40.080Z,98647.00
2023-04-03T18:49:08.156Z,98661.00
2023-04-03T18:51:35.272Z,98646.00
2023-04-03T18:54:02.758Z,98642.00
2023-04-03T18:56:31.313Z,98653.00
2023-04-03T18:58:58.590Z,98649.00
2023-04-03T19:01:25.697Z,98654.00
2023-04-03T19:03:52.855Z,98648.00
2023-04-03T19:06:19.944Z,98655.00
2023-04-03T19:08:48.359Z,98648.00
2023-04-03T19:11:15.434Z,98671.00
2023-04-03T19:13:46.773Z,98668.00
2023-04-03T19:16:29.294Z,98665.00
2023-04-03T19:18:56.185Z,98681.00
2023-04-03T19:21:22.959Z,98673.00
2023-04-03T19:23:50.386Z,98663.00
2023-04-03T19:26:17.566Z,98679.00
2023-04-03T19:28:47.020Z,98664.00
2023-04-03T19:31:17.346Z,98680.00
2023-04-03T19:33:45.296Z,98671.00
2023-04-03T19:36:13.018Z,98675.00
2023-04-03T19:38:40.170Z,98681.00
2023-04-03T19:41:15.071Z,98671.00
2023-04-03T19:43:42.389Z,98651.00
2023-04-03T19:46:10.244Z,98673.00
2023-04-03T19:48:37.499Z,98668.00
2023-04-03T19:51:06.057Z,98690.00
2023-04-03T19:53:32.992Z,98670.00
2023-04-03T19:56:01.009Z,98673.00
2023-04-03T19:58:29.855Z,98693.00
2023-04-03T20:00:58.332Z,98690.00
2023-04-03T20:03:26.659Z,98687.00
2023-04-03T20:05:54.710Z,98682.00
2023-04-03T20:08:21.678Z,98677.00
2023-04-03T20:10:48.962Z,98687.00
2023-04-03T20:13:15.807Z,98684.00
2023-04-03T20:15:44.827Z,98672.00
2023-04-03T20:18:20.410Z,98682.00
2023-04-03T20:20:55.849Z,98670.00
2023-04-03T20:23:23.664Z,98693.00
2023-04-03T20:26:05.863Z,98677.00
2023-04-03T20:28:36.606Z,98662.00
2023-04-03T20:31:03.966Z,98682.00
2023-04-03T20:33:30.853Z,98682.00
2023-04-03T20:35:58.491Z,98666.00
2023-04-03T20:38:25.486Z,98653.00
2023-04-03T20:40:52.415Z,98665.00
2023-04-03T20:43:21.878Z,98679.00
2023-04-03T20:45:49.375Z,98670.00
2023-04-03T20:48:17.970Z,98682.00
2023-04-03T20:50:46.338Z,98659.00
2023-04-03T20:53:15.166Z,98676.00
2023-04-03T20:55:42.466Z,98671.00
2023-04-03T20:58:09.737Z,98667.00
2023-04-03T21:00:37.763Z,98672.00
2023-04-03T21:03:05.603Z,98670.00
2023-04-03T21:05:37.356Z,98670.00
2023-04-03T21:09:01.303Z,98673.00
2023-04-03T21:12:24.805Z,98665.00
2023-04-03T21:15:55.182Z,98671.00
2023-04-03T21:19:00.680Z,98659.00
2023-04-03T21:21:27.665Z,98651.00
2023-04-03T21:23:55.866Z,98667.00
2023-04-03T21:26:26.470Z,98663.00
2023-04-03T21:28:54.126Z,98638.00
2023-04-03T21:31:22.132Z,98659.00
2023-04-03T21:33:49.737Z,98648.00
2023-04-03T21:36:16.952Z,98651.00
2023-04-03T21:38:45.875Z,98658.00
2023-04-03T21:41:12.721Z,98651.00
2023-04-03T21:43:39.814Z,98656.00
2023-04-03T21:46:06.723Z,98651.00
2023-04-03T21:48:36.056Z,98648.00
2023-04-03T21:51:04.898Z,98656.00
2023-04-03T21:53:33.917Z,98650.00
2023-04-03T21:56:02.382Z,98666.00
2023-04-03T21:58:31.984Z,98671.00
2023-04-03T22:01:15.128Z,98651.00
2023-04-03T22:03:44.144Z,98655.00
2023-04-03T22:06:13.961Z,98657.00
2023-04-03T22:08:41.102Z,98650.00
2023-04-03T22:11:14.993Z,98656.00
2023-04-03T22:13:43.643Z,98649.00
2023-04-03T22:16:12.663Z,98664.00
2023-04-03T22:18:39.513Z,98653.00
2023-04-03T22:21:08.235Z,98647.00
2023-04-03T22:23:35.739Z,98660.00
2023-04-03T22:26:08.608Z,98655.00
2023-04-03T22:28:42.867Z,98647.00
2023-04-03T22:31:11.637Z,98659.00
2023-04-03T22:33:38.843Z,98650.00
2023-04-03T22:36:08.104Z,98647.00
2023-04-03T22:38:35.536Z,98636.00
2023-04-03T22:41:05.495Z,98644.00
2023-04-03T22:43:34.487Z,98654.00
2023-04-03T22:46:08.518Z,98641.00
2023-04-03T22:48:37.052Z,98623.00
2023-04-03T22:51:07.561Z,98635.00
2023-04-03T22:53:38.351Z,98649.00
2023-04-03T22:56:13.914Z,98632.00
2023-04-03T22:58:41.026Z,98635.00
2023-04-03T23:01:13.542Z,98625.00
2023-04-03T23:03:42.241Z,98617.00
2023-04-03T23:06:10.825Z,98623.00
2023-04-03T23:08:38.942Z,98631.00
2023-04-03T23:11:12.260Z,98634.00
2023-04-03T23:13:39.198Z,98623.00
2023-04-03T23:16:06.924Z,98630.00
2023-04-03T23:18:33.925Z,98624.00
2023-04-03T23:21:03.491Z,98615.00
2023-04-03T23:23:31.137Z,98625.00
2023-04-03T23:26:01.535Z,98636.00
2023-04-03T23:28:29.692Z,98625.00
2023-04-03T23:31:02.872Z,98635.00
2023-04-03T23:33:31.009Z,98634.00
2023-04-03T23:35:59.089Z,98637.00
2023-04-03T23:38:26.252Z,98643.00
2023-04-03T23:40:53.186Z,98651.00
2023-04-03T23:43:20.013Z,98642.00
2023-04-03T23:45:47.454Z,98632.00
2023-04-03T23:48:14.392Z,98632.00
2023-04-03T23:50:42.527Z,98619.00
2023-04-03T23:53:09.990Z,98623.00
2023-04-03T23:55:36.822Z,98636.00
2023-04-03T23:58:03.667Z,98622.00
